Time;durP1;ratioP1;P1;durP2;ratioP2;P2;SDS_P1;SDS_P2;PMS_P1;PMS_P2;Temp;Humidity;BMP_temperature;BMP_pressure;BME280_temperature;BME280_humidity;BME280_pressure;Samples;Min_cycle;Max_cycle;Signal;HPM_P1;HPM_P2
2022/06/10 00:00:52;;;;;;;3.92;1.80;;;13.80;99.90;;;;;;5060253;28;20485;-38
2022/06/10 00:03:20;;;;;;;2.38;1.45;;;13.70;99.90;;;;;;5059996;28;20044;-39
2022/06/10 00:05:48;;;;;;;3.55;1.80;;;13.60;99.90;;;;;;5071229;28;20035;-39
2022/06/10 00:08:17;;;;;;;2.00;1.80;;;13.70;99.90;;;;;;5070481;28;20106;-38
2022/06/10 00:10:45;;;;;;;2.70;1.80;;;13.50;99.90;;;;;;5055184;28;20158;-38
2022/06/10 00:13:12;;;;;;;4.35;1.60;;;13.50;99.90;;;;;;5064777;28;20032;-39
2022/06/10 00:15:39;;;;;;;3.20;1.60;;;13.50;99.90;;;;;;5069947;28;20029;-36
2022/06/10 00:18:05;;;;;;;3.25;1.70;;;13.60;99.90;;;;;;5071733;28;20032;-37
2022/06/10 00:20:32;;;;;;;2.05;1.58;;;13.40;99.90;;;;;;5064948;28;20059;-38
2022/06/10 00:22:58;;;;;;;3.90;1.85;;;13.40;99.90;;;;;;5060648;28;20028;-39
2022/06/10 00:25:27;;;;;;;1.50;1.40;;;13.40;99.90;;;;;;5061358;28;20044;-39
2022/06/10 00:27:53;;;;;;;2.25;1.60;;;13.40;99.90;;;;;;5068685;28;20285;-39
2022/06/10 00:30:22;;;;;;;1.80;1.50;;;13.30;99.90;;;;;;5062950;28;20083;-36
2022/06/10 00:32:48;;;;;;;2.72;1.67;;;13.30;99.90;;;;;;5061076;28;20108;-38
2022/06/10 00:35:14;;;;;;;2.15;1.60;;;13.30;99.90;;;;;;5063120;28;20150;-39
2022/06/10 00:37:40;;;;;;;3.00;1.63;;;13.40;99.90;;;;;;5067295;28;20040;-37
2022/06/10 00:40:11;;;;;;;3.78;1.60;;;13.40;99.90;;;;;;5067209;28;20025;-39
2022/06/10 00:42:38;;;;;;;3.03;1.88;;;13.40;99.90;;;;;;5063031;28;20461;-36
2022/06/10 00:45:26;;;;;;;3.70;1.60;;;13.40;99.90;;;;;;5067582;28;20024;-37
2022/06/10 00:47:51;;;;;;;3.08;1.60;;;13.30;99.90;;;;;;5069762;28;20520;-39
2022/06/10 00:50:23;;;;;;;4.28;1.60;;;13.40;99.90;;;;;;5067599;28;20066;-37
2022/06/10 00:53:00;;;;;;;2.10;1.70;;;13.40;99.90;;;;;;5067379;28;20032;-37
2022/06/10 00:55:29;;;;;;;2.28;1.83;;;13.50;99.90;;;;;;5058407;28;20362;-39
2022/06/10 00:58:07;;;;;;;2.50;1.80;;;13.40;99.90;;;;;;5078053;28;20115;-39
2022/06/10 01:00:36;;;;;;;1.80;1.70;;;13.40;99.90;;;;;;5062856;28;20063;-32
2022/06/10 01:03:02;;;;;;;2.13;1.80;;;13.30;99.90;;;;;;5059485;28;20646;-32
2022/06/10 01:05:28;;;;;;;2.70;1.85;;;13.30;99.90;;;;;;5066312;28;20063;-32
2022/06/10 01:08:08;;;;;;;3.30;1.65;;;13.30;99.90;;;;;;5067008;28;20731;-33
2022/06/10 01:10:55;;;;;;;3.13;1.50;;;13.30;99.90;;;;;;5067593;28;20555;-32
2022/06/10 01:13:30;;;;;;;1.90;1.70;;;13.30;99.90;;;;;;5066371;28;20366;-32
2022/06/10 01:16:20;;;;;;;1.98;1.70;;;13.40;99.90;;;;;;5067594;28;20028;-32
2022/06/10 01:18:54;;;;;;;2.05;1.80;;;13.30;99.90;;;;;;5065702;28;20052;-32
2022/06/10 01:22:13;;;;;;;1.75;1.63;;;13.30;99.90;;;;;;5068875;28;20047;-32
2022/06/10 01:25:14;;;;;;;4.32;1.83;;;13.30;99.90;;;;;;5016688;28;20045;-34
2022/06/10 01:28:05;;;;;;;2.03;1.83;;;13.30;99.90;;;;;;5065100;28;20020;-33
2022/06/10 01:31:08;;;;;;;2.30;1.70;;;13.30;99.90;;;;;;5075933;28;20036;-32
2022/06/10 01:34:01;;;;;;;3.63;1.90;;;13.30;99.90;;;;;;5066888;28;20473;-32
2022/06/10 01:36:50;;;;;;;2.33;1.80;;;13.40;99.90;;;;;;5053992;28;20128;-32
2022/06/10 01:39:15;;;;;;;2.85;1.90;;;13.40;99.90;;;;;;5069426;28;20134;-32
2022/06/10 01:41:53;;;;;;;2.45;2.20;;;13.20;99.90;;;;;;5068209;28;20084;-33
2022/06/10 01:44:37;;;;;;;2.38;1.80;;;13.20;99.90;;;;;;5078156;28;20036;-32
2022/06/10 01:47:06;;;;;;;2.60;2.00;;;13.20;99.90;;;;;;5065284;28;20806;-32
2022/06/10 01:50:01;;;;;;;2.28;2.08;;;13.30;99.90;;;;;;5066109;28;20060;-32
2022/06/10 01:52:42;;;;;;;4.30;1.90;;;13.20;99.90;;;;;;5066814;28;20041;-32
2022/06/10 01:55:10;;;;;;;2.95;1.85;;;13.20;99.90;;;;;;5066122;28;20032;-32
2022/06/10 01:57:43;;;;;;;3.45;2.08;;;13.30;99.90;;;;;;5069060;28;20020;-33
2022/06/10 02:00:21;;;;;;;2.92;1.90;;;13.30;99.90;;;;;;5067833;28;20033;-32
2022/06/10 02:03:07;;;;;;;2.70;1.60;;;13.30;99.90;;;;;;5074978;28;20060;-32
2022/06/10 02:05:44;;;;;;;2.92;2.10;;;13.30;99.90;;;;;;5072894;28;20028;-32
2022/06/10 02:08:42;;;;;;;2.30;2.10;;;13.30;99.90;;;;;;5069876;28;20021;-32
2022/06/10 02:11:10;;;;;;;5.75;2.33;;;13.30;99.90;;;;;;5061892;28;20035;-32
2022/06/10 02:13:42;;;;;;;3.35;1.88;;;13.20;99.90;;;;;;5069440;28;20032;-32
2022/06/10 02:16:15;;;;;;;3.22;1.98;;;13.20;99.90;;;;;;5078632;28;20068;-32
2022/06/10 02:18:54;;;;;;;2.45;1.70;;;13.20;99.90;;;;;;5056272;28;20546;-32
2022/06/10 02:21:42;;;;;;;3.20;1.80;;;13.20;99.90;;;;;;5065449;28;20510;-32
2022/06/10 02:24:20;;;;;;;2.08;1.70;;;13.10;99.90;;;;;;5067563;28;20024;-32
2022/06/10 02:26:48;;;;;;;2.58;1.88;;;13.10;99.90;;;;;;5068461;28;20035;-32
2022/06/10 02:29:19;;;;;;;4.50;2.27;;;13.10;99.90;;;;;;5075086;28;20481;-32
2022/06/10 02:31:50;;;;;;;5.50;2.38;;;13.10;99.90;;;;;;5076811;28;20283;-32
2022/06/10 02:34:15;;;;;;;3.50;1.83;;;13.00;99.90;;;;;;5062368;28;20039;-32
2022/06/10 02:36:53;;;;;;;2.40;1.70;;;12.90;99.90;;;;;;5071337;28;20028;-32
2022/06/10 02:39:33;;;;;;;3.80;2.60;;;12.90;99.90;;;;;;5071411;28;20059;-32
2022/06/10 02:42:16;;;;;;;2.53;2.20;;;12.90;99.90;;;;;;5063864;28;20503;-32
2022/06/10 02:44:56;;;;;;;3.00;1.92;;;12.90;99.90;;;;;;5079288;28;20032;-33
2022/06/10 02:47:44;;;;;;;4.55;2.25;;;12.80;99.90;;;;;;5066967;28;20032;-32
2022/06/10 02:50:11;;;;;;;3.88;2.08;;;12.70;99.90;;;;;;5065076;28;20085;-32
2022/06/10 02:52:37;;;;;;;3.03;1.65;;;12.80;99.90;;;;;;5085654;28;20485;-32
2022/06/10 02:55:06;;;;;;;4.15;1.90;;;12.80;99.90;;;;;;5069953;28;20549;-32
2022/06/10 03:03:15;;;;;;;6.80;2.17;;;12.80;99.90;;;;;;5067529;28;20039;-32
2022/06/10 03:05:53;;;;;;;3.65;2.10;;;12.70;99.90;;;;;;5069269;28;20556;-32
2022/06/10 03:08:35;;;;;;;2.97;1.67;;;12.70;99.90;;;;;;5060915;28;20043;-32
2022/06/10 03:11:13;;;;;;;1.67;1.58;;;12.70;99.90;;;;;;5060017;28;20159;-32
2022/06/10 03:14:07;;;;;;;2.63;1.73;;;12.70;99.90;;;;;;5074760;28;20074;-32
2022/06/10 03:16:57;;;;;;;4.18;2.28;;;12.70;99.90;;;;;;5067297;28;20037;-32
2022/06/10 03:19:35;;;;;;;1.70;1.60;;;12.70;99.90;;;;;;5071361;28;20063;-32
2022/06/10 03:22:15;;;;;;;3.85;1.98;;;12.70;99.90;;;;;;5055118;28;20056;-32
2022/06/10 03:24:49;;;;;;;3.58;2.22;;;12.70;99.90;;;;;;5064193;28;20549;-32
2022/06/10 03:27:31;;;;;;;3.70;2.10;;;12.70;99.90;;;;;;5062307;28;20426;-33
2022/06/10 03:30:12;;;;;;;3.60;2.15;;;12.70;99.90;;;;;;5070265;28;20028;-32
2022/06/10 03:32:48;;;;;;;2.67;2.10;;;12.50;99.90;;;;;;5063230;28;20117;-32
2022/06/10 03:35:29;;;;;;;3.20;1.88;;;12.50;99.90;;;;;;5060740;28;20128;-32
2022/06/10 03:37:55;;;;;;;6.18;2.10;;;12.50;99.90;;;;;;5064555;28;20481;-32
2022/06/10 03:40:25;;;;;;;1.98;1.88;;;12.50;99.90;;;;;;5066863;28;20117;-32
2022/06/10 03:42:54;;;;;;;3.20;2.00;;;12.50;99.90;;;;;;5067307;28;20069;-32
2022/06/10 03:45:25;;;;;;;5.30;2.15;;;12.50;99.90;;;;;;5069944;28;20126;-32
2022/06/10 03:47:51;;;;;;;5.13;2.00;;;12.40;99.90;;;;;;5070753;28;20028;-32
2022/06/10 03:50:29;;;;;;;3.53;2.25;;;12.40;99.90;;;;;;5062878;28;20523;-32
2022/06/10 03:52:54;;;;;;;3.50;2.25;;;12.30;99.90;;;;;;5061234;28;20020;-32
2022/06/10 03:55:20;;;;;;;2.20;1.80;;;12.30;99.90;;;;;;5064136;28;20515;-32
2022/06/10 03:57:47;;;;;;;2.45;1.80;;;12.20;99.90;;;;;;5072009;28;20496;-32
2022/06/10 04:00:17;;;;;;;4.05;1.83;;;12.10;99.90;;;;;;5072558;28;20039;-32
2022/06/10 04:02:43;;;;;;;2.20;1.90;;;12.00;99.90;;;;;;5073603;28;20123;-32
2022/06/10 04:05:10;;;;;;;4.85;1.90;;;12.10;99.90;;;;;;5072769;28;20112;-32
2022/06/10 04:07:36;;;;;;;3.73;2.33;;;12.10;99.90;;;;;;5074658;28;20024;-32
2022/06/10 04:10:03;;;;;;;2.92;1.95;;;12.20;99.90;;;;;;5064026;28;20032;-32
2022/06/10 04:12:28;;;;;;;2.33;2.13;;;12.20;99.90;;;;;;5057239;28;20024;-32
2022/06/10 04:14:54;;;;;;;3.45;2.10;;;12.20;99.90;;;;;;5071747;28;20029;-32
2022/06/10 04:17:19;;;;;;;3.55;2.13;;;12.20;99.90;;;;;;5068191;28;20501;-32
2022/06/10 04:19:45;;;;;;;2.28;2.08;;;12.20;99.90;;;;;;5064450;28;20074;-32
2022/06/10 04:22:11;;;;;;;5.05;2.15;;;12.10;99.90;;;;;;5059276;28;20028;-32
2022/06/10 04:24:36;;;;;;;2.25;2.00;;;12.20;99.90;;;;;;5058058;28;20032;-32
2022/06/10 04:27:02;;;;;;;2.72;1.95;;;12.20;99.90;;;;;;5068715;28;20488;-32
2022/06/10 04:29:28;;;;;;;3.15;1.98;;;12.20;99.90;;;;;;5072278;28;20055;-32
2022/06/10 04:31:54;;;;;;;3.15;2.20;;;12.20;99.90;;;;;;5070712;28;20059;-32
2022/06/10 04:34:19;;;;;;;2.45;2.08;;;12.20;99.90;;;;;;5065174;28;20020;-32
2022/06/10 04:36:45;;;;;;;2.30;2.10;;;12.30;99.90;;;;;;5065482;28;20048;-32
2022/06/10 04:39:11;;;;;;;3.28;2.72;;;12.30;99.90;;;;;;5065207;28;20071;-32
2022/06/10 04:41:38;;;;;;;3.10;1.92;;;12.40;99.90;;;;;;5065279;28;20020;-32
2022/06/10 04:44:04;;;;;;;4.72;1.88;;;12.50;99.90;;;;;;5062755;28;20025;-32
2022/06/10 04:46:33;;;;;;;3.60;2.13;;;12.60;99.90;;;;;;5066093;28;20040;-32
2022/06/10 04:48:59;;;;;;;3.40;2.08;;;12.70;99.90;;;;;;5064746;28;20043;-32
2022/06/10 04:51:25;;;;;;;3.33;1.88;;;12.80;99.90;;;;;;5067721;28;20035;-32
2022/06/10 04:53:51;;;;;;;2.30;2.10;;;12.90;99.90;;;;;;5065375;28;20032;-33
2022/06/10 04:56:18;;;;;;;4.60;2.00;;;13.10;99.90;;;;;;5069132;28;20036;-32
2022/06/10 04:58:44;;;;;;;3.00;2.10;;;13.20;99.90;;;;;;5071437;28;20489;-32
2022/06/10 05:01:10;;;;;;;2.30;2.13;;;13.20;99.90;;;;;;5070154;28;20051;-32
2022/06/10 05:03:36;;;;;;;5.47;2.33;;;13.30;99.90;;;;;;5068007;28;20025;-32
2022/06/10 05:06:03;;;;;;;2.17;2.08;;;13.20;99.90;;;;;;5064942;28;20664;-32
2022/06/10 05:08:28;;;;;;;2.83;2.05;;;13.10;99.90;;;;;;5059478;28;20544;-32
2022/06/10 05:10:54;;;;;;;5.60;2.08;;;12.90;99.90;;;;;;5067528;28;20028;-32
2022/06/10 05:13:20;;;;;;;3.97;2.10;;;12.90;99.90;;;;;;5071155;28;20487;-33
2022/06/10 05:15:47;;;;;;;1.85;1.67;;;12.80;99.90;;;;;;5070466;28;20432;-32
2022/06/10 05:18:15;;;;;;;2.85;2.28;;;12.90;99.90;;;;;;5062944;28;20052;-32
2022/06/10 05:20:42;;;;;;;3.45;1.92;;;13.10;99.90;;;;;;5070482;28;20525;-32
2022/06/10 05:23:10;;;;;;;4.68;2.05;;;13.40;99.90;;;;;;5061894;28;20098;-32
2022/06/10 05:25:36;;;;;;;2.65;1.92;;;13.60;99.90;;;;;;5069046;28;20016;-32
2022/06/10 05:28:03;;;;;;;3.45;2.10;;;13.70;99.90;;;;;;5068400;28;20048;-32
2022/06/10 05:30:31;;;;;;;4.45;2.50;;;13.70;99.90;;;;;;5058602;28;20058;-32
2022/06/10 05:32:58;;;;;;;1.63;1.52;;;13.90;99.90;;;;;;5069911;28;20113;-32
2022/06/10 05:35:24;;;;;;;4.45;2.10;;;13.80;99.90;;;;;;5061920;28;20405;-32
2022/06/10 05:37:51;;;;;;;2.30;1.75;;;14.00;99.90;;;;;;5060241;28;20044;-32
2022/06/10 05:40:18;;;;;;;2.22;1.80;;;14.10;99.90;;;;;;5068923;28;20017;-32
2022/06/10 05:42:44;;;;;;;5.50;1.92;;;14.30;99.90;;;;;;5068967;28;20458;-32
2022/06/10 05:45:14;;;;;;;4.05;2.65;;;14.50;99.90;;;;;;5068454;28;20036;-31
2022/06/10 05:47:40;;;;;;;3.63;2.05;;;14.50;99.90;;;;;;5068882;28;20028;-32
2022/06/10 05:50:14;;;;;;;5.40;2.13;;;14.50;99.90;;;;;;5067286;28;20029;-32
2022/06/10 05:52:40;;;;;;;3.53;2.15;;;14.50;99.90;;;;;;5057458;28;20495;-32
2022/06/10 05:55:08;;;;;;;4.35;1.92;;;14.60;99.90;;;;;;5073374;28;20434;-32
2022/06/10 05:57:33;;;;;;;2.90;2.10;;;14.40;99.90;;;;;;5076698;28;20037;-32
2022/06/10 05:59:59;;;;;;;3.58;2.00;;;14.40;99.90;;;;;;5069442;28;20439;-33
2022/06/10 06:02:25;;;;;;;2.28;1.80;;;14.40;99.90;;;;;;5067946;28;20041;-32
2022/06/10 06:04:52;;;;;;;2.13;1.75;;;14.20;99.90;;;;;;5069797;28;20473;-32
2022/06/10 06:07:23;;;;;;;5.43;2.15;;;14.40;99.90;;;;;;5062953;28;20099;-33
2022/06/10 06:09:49;;;;;;;3.53;2.50;;;14.50;99.90;;;;;;5070539;28;20111;-32
2022/06/10 06:12:15;;;;;;;3.10;1.83;;;14.60;99.90;;;;;;5073729;28;20039;-32
2022/06/10 06:14:41;;;;;;;2.97;1.90;;;14.60;99.90;;;;;;5074170;28;20048;-32
2022/06/10 06:17:07;;;;;;;2.28;1.90;;;14.80;99.90;;;;;;5070388;28;20110;-31
2022/06/10 06:19:33;;;;;;;3.75;1.90;;;15.10;99.90;;;;;;5062374;28;20037;-31
2022/06/10 06:21:59;;;;;;;6.10;2.03;;;15.10;99.90;;;;;;5059470;28;20052;-32
2022/06/10 06:24:25;;;;;;;4.80;1.88;;;14.90;99.90;;;;;;5070559;28;20044;-33
2022/06/10 06:26:51;;;;;;;2.33;1.80;;;15.20;99.90;;;;;;5063324;28;20027;-32
2022/06/10 06:29:18;;;;;;;4.28;2.03;;;15.40;99.90;;;;;;5069471;28;20540;-31
2022/06/10 06:31:44;;;;;;;2.15;1.92;;;15.40;99.90;;;;;;5072274;28;20036;-31
2022/06/10 06:34:10;;;;;;;2.97;1.60;;;15.60;99.90;;;;;;5066424;28;20033;-31
2022/06/10 06:36:45;;;;;;;1.92;1.65;;;15.80;99.90;;;;;;5065169;28;20031;-31
2022/06/10 06:39:11;;;;;;;3.38;1.70;;;15.90;99.90;;;;;;5068045;28;20493;-32
2022/06/10 06:41:37;;;;;;;4.85;1.90;;;16.20;99.90;;;;;;5068626;28;20028;-32
2022/06/10 06:44:05;;;;;;;3.22;1.67;;;16.20;99.90;;;;;;5062284;28;20966;-32
2022/06/10 06:46:32;;;;;;;1.50;1.40;;;16.30;99.90;;;;;;5062560;28;20087;-32
2022/06/10 06:48:57;;;;;;;2.55;1.70;;;16.40;99.90;;;;;;5066984;28;20029;-33
2022/06/10 06:51:23;;;;;;;3.30;1.90;;;16.30;99.90;;;;;;5063576;28;20035;-32
2022/06/10 06:53:49;;;;;;;2.10;1.70;;;16.50;99.90;;;;;;5064475;28;20028;-32
2022/06/10 06:56:15;;;;;;;2.15;1.75;;;16.50;99.90;;;;;;5065438;28;20028;-32
2022/06/10 06:58:40;;;;;;;5.68;2.20;;;16.60;99.90;;;;;;5065039;28;20024;-32
2022/06/10 07:01:06;;;;;;;2.10;1.70;;;16.50;99.90;;;;;;5062887;28;20066;-32
2022/06/10 07:03:31;;;;;;;2.28;1.63;;;16.80;99.90;;;;;;5065026;28;20040;-31
2022/06/10 07:05:57;;;;;;;2.72;1.70;;;17.20;99.90;;;;;;5064986;28;20078;-32
2022/06/10 07:08:30;;;;;;;6.43;2.05;;;17.40;99.90;;;;;;5064078;28;20071;-32
2022/06/10 07:11:03;;;;;;;1.70;1.60;;;17.60;99.90;;;;;;5066223;28;20031;-32
2022/06/10 07:13:29;;;;;;;2.88;1.90;;;17.80;98.50;;;;;;5066536;28;20663;-32
2022/06/10 07:15:57;;;;;;;5.20;1.95;;;17.20;95.70;;;;;;5064018;28;20074;-31
2022/06/10 07:18:23;;;;;;;3.55;1.95;;;17.40;99.80;;;;;;5063303;28;22043;-32
2022/06/10 07:20:49;;;;;;;2.50;1.42;;;17.10;94.20;;;;;;5068528;28;20050;-32
2022/06/10 07:23:15;;;;;;;3.55;1.77;;;17.40;97.40;;;;;;5065423;28;20032;-32
2022/06/10 07:25:42;;;;;;;1.80;1.70;;;17.90;99.90;;;;;;5065817;28;20044;-32
2022/06/10 07:28:09;;;;;;;2.00;1.80;;;17.80;93.10;;;;;;5062874;28;20029;-31
2022/06/10 07:30:35;;;;;;;2.20;1.70;;;18.10;96.80;;;;;;5067882;28;20060;-31
2022/06/10 07:33:01;;;;;;;3.22;1.60;;;18.20;96.40;;;;;;5061280;28;20046;-31
2022/06/10 07:35:28;;;;;;;2.10;1.70;;;17.70;92.00;;;;;;5066526;28;20032;-31
2022/06/10 07:37:54;;;;;;;4.40;1.67;;;17.90;96.50;;;;;;5062875;28;20124;-34
2022/06/10 07:43:16;;;;;;;3.40;1.90;;;18.60;93.90;;;;;;5066437;28;20101;-32
2022/06/10 07:45:42;;;;;;;1.95;1.85;;;18.60;91.40;;;;;;5065627;28;20188;-32
2022/06/10 07:48:10;;;;;;;2.50;1.70;;;18.80;92.10;;;;;;5060349;28;20111;-32
2022/06/10 07:50:37;;;;;;;2.78;1.50;;;18.80;95.40;;;;;;5065493;28;20036;-32
2022/06/10 07:53:02;;;;;;;2.83;1.65;;;19.20;93.80;;;;;;5063709;28;20039;-32
2022/06/10 07:55:28;;;;;;;1.70;1.60;;;19.60;91.00;;;;;;5063121;28;20538;-32
2022/06/10 07:57:54;;;;;;;2.30;1.60;;;19.70;88.50;;;;;;5065162;28;20472;-32
2022/06/10 08:00:20;;;;;;;2.83;1.75;;;19.40;80.70;;;;;;5063973;28;20446;-32
2022/06/10 08:02:46;;;;;;;2.33;1.75;;;19.20;88.40;;;;;;5061384;28;20081;-31
2022/06/10 08:05:13;;;;;;;2.80;1.67;;;18.80;85.20;;;;;;5062463;28;20751;-32
2022/06/10 08:07:40;;;;;;;4.00;2.28;;;18.60;91.30;;;;;;5065850;28;20394;-32
2022/06/10 08:10:08;;;;;;;2.30;1.67;;;18.60;90.40;;;;;;5064101;28;20036;-32
2022/06/10 08:12:34;;;;;;;3.67;1.92;;;18.90;88.60;;;;;;5065391;28;20032;-32
2022/06/10 08:14:59;;;;;;;2.65;1.67;;;19.30;92.60;;;;;;5060383;28;20547;-31
2022/06/10 08:17:25;;;;;;;3.28;1.67;;;19.70;90.20;;;;;;5061637;28;20063;-31
2022/06/10 08:19:51;;;;;;;2.22;1.55;;;19.70;87.70;;;;;;5065632;28;21286;-31
2022/06/10 08:25:07;;;;;;;2.35;1.67;;;20.60;81.30;;;;;;5063525;28;20405;-33
2022/06/10 08:27:34;;;;;;;2.58;1.60;;;20.10;69.50;;;;;;5064600;28;20240;-32
2022/06/10 08:30:04;;;;;;;3.42;1.77;;;19.90;81.30;;;;;;5061732;28;20495;-32
2022/06/10 08:32:29;;;;;;;1.58;1.42;;;19.70;81.30;;;;;;5058746;28;20063;-33
2022/06/10 08:34:55;;;;;;;1.45;1.38;;;19.20;79.50;;;;;;5062503;28;20063;-32
2022/06/10 08:37:20;;;;;;;2.00;1.83;;;18.80;76.40;;;;;;5062251;28;20043;-33
2022/06/10 08:39:46;;;;;;;1.80;1.65;;;19.30;90.00;;;;;;5064439;28;20070;-32
2022/06/10 08:42:33;;;;;;;2.35;1.73;;;19.80;91.10;;;;;;5062952;28;20089;-31
2022/06/10 08:45:10;;;;;;;3.22;1.55;;;20.20;87.10;;;;;;5064869;28;20075;-33
2022/06/10 08:47:43;;;;;;;2.60;1.70;;;19.80;76.10;;;;;;5064255;28;20055;-32
2022/06/10 08:50:29;;;;;;;2.92;1.92;;;19.60;81.40;;;;;;5062694;28;20040;-32
2022/06/10 08:53:37;;;;;;;3.13;1.70;;;19.50;79.60;;;;;;5063322;28;20035;-32
2022/06/10 08:56:22;;;;;;;;;;;19.40;72.90;;;;;;5055270;28;20040;-32
2022/06/10 08:59:08;;;;;;;4.30;1.63;;;19.30;74.90;;;;;;5063963;28;20369;-32
2022/06/10 09:02:02;;;;;;;1.92;1.70;;;19.20;76.60;;;;;;5062868;28;20044;-32
2022/06/10 09:04:33;;;;;;;2.33;1.77;;;19.00;77.80;;;;;;5055326;28;20069;-32
2022/06/10 09:07:06;;;;;;;2.40;1.70;;;18.90;82.80;;;;;;5065629;28;21034;-32
2022/06/10 09:09:33;;;;;;;2.70;1.70;;;18.80;79.00;;;;;;5062952;28;20093;-32
2022/06/10 09:12:11;;;;;;;1.95;1.75;;;18.90;75.90;;;;;;5061788;28;20161;-33
2022/06/10 09:14:37;;;;;;;4.15;1.88;;;19.00;76.10;;;;;;5062845;28;20029;-32
2022/06/10 09:17:38;;;;;;;5.03;1.90;;;19.00;76.60;;;;;;5065650;28;20378;-31
2022/06/10 09:20:27;;;;;;;2.60;1.60;;;19.10;79.20;;;;;;5022720;28;20055;-32
2022/06/10 09:23:00;;;;;;;1.85;1.73;;;19.70;73.30;;;;;;5059432;28;20132;-34
2022/06/10 09:25:32;;;;;;;1.92;1.75;;;20.20;75.20;;;;;;5063169;28;20025;-32
2022/06/10 09:28:00;;;;;;;2.42;1.52;;;20.90;75.60;;;;;;5062900;28;20028;-32
2022/06/10 09:30:40;;;;;;;3.45;1.63;;;21.50;72.10;;;;;;5065222;28;20027;-31
2022/06/10 09:33:37;;;;;;;1.65;1.55;;;22.00;64.50;;;;;;5061399;28;20086;-32
2022/06/10 09:36:50;;;;;;;3.27;1.80;;;21.70;62.20;;;;;;5070951;28;20501;-32
2022/06/10 09:42:51;;;;;;;2.95;1.73;;;22.10;63.50;;;;;;5066235;28;20059;-31
2022/06/10 09:45:28;;;;;;;2.13;1.63;;;23.00;58.40;;;;;;5064024;28;20025;-32
2022/06/10 09:48:02;;;;;;;3.08;1.75;;;22.90;56.60;;;;;;5066170;28;20037;-31
2022/06/10 09:50:40;;;;;;;2.45;1.80;;;22.70;52.50;;;;;;5063262;28;20067;-31
2022/06/10 09:53:38;;;;;;;1.73;1.60;;;21.60;57.30;;;;;;5066759;28;20025;-31
2022/06/10 09:56:32;;;;;;;2.38;1.67;;;21.60;62.60;;;;;;5054986;28;20045;-31
2022/06/10 09:59:30;;;;;;;5.22;1.50;;;21.60;56.10;;;;;;5063543;28;20024;-31
2022/06/10 10:02:27;;;;;;;1.98;1.70;;;22.20;59.50;;;;;;5067506;28;20496;-31
2022/06/10 10:05:33;;;;;;;2.85;1.80;;;22.70;55.10;;;;;;5057781;28;20598;-31
2022/06/10 10:08:09;;;;;;;2.47;1.98;;;22.00;59.70;;;;;;5065323;28;20032;-31
2022/06/10 10:10:48;;;;;;;2.22;2.00;;;22.40;59.50;;;;;;5065709;28;20439;-31
2022/06/10 10:13:26;;;;;;;3.00;1.92;;;22.00;62.40;;;;;;5066665;28;20028;-31
2022/06/10 10:16:20;;;;;;;7.75;2.33;;;21.30;66.90;;;;;;5066147;28;20028;-31
2022/06/10 10:19:40;;;;;;;2.75;2.00;;;21.00;69.50;;;;;;5057402;28;20024;-31
2022/06/10 10:22:18;;;;;;;2.85;1.90;;;20.60;73.40;;;;;;5062063;28;20382;-31
2022/06/10 10:24:45;;;;;;;;;;;20.50;63.10;;;;;;5069854;28;20063;-32
2022/06/10 10:27:25;;;;;;;2.38;1.63;;;21.20;65.20;;;;;;5058982;28;19943;-31
2022/06/10 10:29:57;;;;;;;1.95;1.65;;;22.10;57.10;;;;;;5066768;28;20026;-31
2022/06/10 10:32:36;;;;;;;2.05;1.80;;;22.30;62.10;;;;;;5055797;28;20507;-31
2022/06/10 10:35:17;;;;;;;2.90;1.70;;;21.40;61.60;;;;;;5066028;28;20539;-31
2022/06/10 10:37:52;;;;;;;1.50;1.40;;;20.70;56.50;;;;;;5067520;28;20023;-32
2022/06/10 10:40:21;;;;;;;2.55;1.52;;;21.00;61.90;;;;;;5065118;28;20553;-32
2022/06/10 10:42:51;;;;;;;1.73;1.63;;;21.20;53.40;;;;;;5060259;28;20028;-32
2022/06/10 10:45:32;;;;;;;2.70;1.67;;;21.10;56.30;;;;;;5068843;28;20031;-32
2022/06/10 10:48:02;;;;;;;2.47;1.95;;;21.10;61.20;;;;;;5066498;28;20016;-31
2022/06/10 10:50:32;;;;;;;3.42;1.45;;;21.10;60.00;;;;;;5065863;28;20036;-31
2022/06/10 10:52:59;;;;;;;1.60;1.50;;;20.90;65.50;;;;;;5070210;28;20028;-31
2022/06/10 10:55:37;;;;;;;2.42;1.83;;;21.10;63.50;;;;;;5066180;28;20032;-31
2022/06/10 10:58:28;;;;;;;3.28;1.70;;;21.20;57.50;;;;;;5057735;28;20040;-32
2022/06/10 11:01:01;;;;;;;5.22;2.00;;;21.30;63.70;;;;;;5063271;28;20106;-31
2022/06/10 11:03:34;;;;;;;2.65;2.17;;;21.10;61.10;;;;;;5068124;28;20036;-31
2022/06/10 11:06:03;;;;;;;3.00;1.92;;;20.90;72.20;;;;;;5065707;28;20397;-32
2022/06/10 11:08:30;;;;;;;2.47;2.10;;;20.50;71.70;;;;;;5066799;28;20393;-32
2022/06/10 11:11:05;;;;;;;2.53;1.90;;;20.20;79.30;;;;;;5060276;28;20473;-32
2022/06/10 11:13:32;;;;;;;4.30;1.60;;;20.10;60.50;;;;;;5057724;28;20027;-32
2022/06/10 11:16:31;;;;;;;3.03;1.98;;;20.10;60.00;;;;;;5066674;28;20032;-32
2022/06/10 11:19:08;;;;;;;1.67;1.58;;;20.10;59.60;;;;;;5066557;28;20031;-32
2022/06/10 11:21:51;;;;;;;2.53;1.67;;;20.50;62.80;;;;;;5058350;28;20063;-32
2022/06/10 11:24:22;;;;;;;2.53;1.40;;;20.90;65.20;;;;;;5061558;28;20033;-33
2022/06/10 11:26:53;;;;;;;3.03;1.50;;;21.10;61.40;;;;;;5056498;28;20029;-31
2022/06/10 11:29:20;;;;;;;1.88;1.60;;;21.40;58.20;;;;;;5068778;28;20032;-31
2022/06/10 11:31:52;;;;;;;2.40;1.70;;;21.70;60.70;;;;;;5065703;28;20095;-31
2022/06/10 11:34:40;;;;;;;2.88;1.60;;;21.30;58.00;;;;;;5068251;28;20082;-32
2022/06/10 11:37:34;;;;;;;3.25;1.60;;;21.30;58.20;;;;;;5056458;28;20171;-31
2022/06/10 11:40:34;;;;;;;1.80;1.50;;;21.70;57.00;;;;;;5062470;28;20075;-32
2022/06/10 11:43:06;;;;;;;4.43;1.55;;;21.60;55.30;;;;;;5066441;28;20438;-31
2022/06/10 11:45:40;;;;;;;1.63;1.52;;;21.40;59.30;;;;;;5066544;28;20032;-33
2022/06/10 11:48:16;;;;;;;1.45;1.30;;;21.00;54.90;;;;;;5066259;28;20024;-31
2022/06/10 11:51:02;;;;;;;2.53;1.67;;;21.20;57.10;;;;;;5066862;28;20381;-31
2022/06/10 11:53:39;;;;;;;2.92;1.58;;;21.40;60.70;;;;;;5060727;28;20036;-32
2022/06/10 11:59:45;;;;;;;1.95;1.50;;;20.90;59.20;;;;;;5063996;28;20115;-31
2022/06/10 12:02:43;;;;;;;1.70;1.60;;;21.30;56.90;;;;;;5063769;28;20066;-32
2022/06/10 12:05:14;;;;;;;2.58;2.10;;;21.20;54.70;;;;;;5066700;28;20036;-32
2022/06/10 12:07:45;;;;;;;2.30;1.60;;;21.00;54.10;;;;;;5065030;28;20032;-32
2022/06/10 12:10:19;;;;;;;3.60;2.08;;;20.80;55.80;;;;;;5066549;28;20106;-32
2022/06/10 12:12:46;;;;;;;2.20;1.80;;;21.10;60.10;;;;;;5055027;28;20473;-32
2022/06/10 12:15:25;;;;;;;3.10;1.80;;;21.40;57.90;;;;;;5064428;28;20115;-32
2022/06/10 12:17:57;;;;;;;5.57;1.90;;;21.30;52.30;;;;;;5054153;28;20068;-32
2022/06/10 12:20:41;;;;;;;3.25;1.60;;;21.20;65.20;;;;;;5065220;28;20128;-32
2022/06/10 12:23:21;;;;;;;3.58;2.00;;;21.00;61.40;;;;;;5064781;28;20936;-32
2022/06/10 12:25:59;;;;;;;1.98;1.75;;;20.80;61.70;;;;;;5064422;28;20035;-32
2022/06/10 12:28:40;;;;;;;2.72;1.60;;;20.70;62.50;;;;;;5062471;28;20478;-32
2022/06/10 12:31:31;;;;;;;5.72;2.10;;;20.60;56.70;;;;;;5062650;28;20046;-33
2022/06/10 12:34:27;;;;;;;2.13;1.60;;;20.80;59.10;;;;;;5062903;28;20040;-33
2022/06/10 12:37:00;;;;;;;1.45;1.40;;;21.10;56.30;;;;;;5057204;28;20032;-31
2022/06/10 12:39:39;;;;;;;1.98;1.50;;;21.40;59.70;;;;;;5059977;28;20032;-32
2022/06/10 12:42:21;;;;;;;3.47;1.80;;;21.70;59.00;;;;;;5061376;28;20048;-31
2022/06/10 12:44:54;;;;;;;1.30;1.20;;;21.30;60.00;;;;;;5062856;28;20074;-32
2022/06/10 12:47:26;;;;;;;2.42;2.22;;;21.20;59.00;;;;;;5064759;28;20032;-31
2022/06/10 12:50:00;;;;;;;2.97;1.75;;;21.00;56.60;;;;;;5061236;28;20115;-32
2022/06/10 12:52:38;;;;;;;1.70;1.60;;;20.90;56.70;;;;;;5078937;28;20041;-32
2022/06/10 12:55:28;;;;;;;2.35;1.65;;;20.80;61.30;;;;;;5064028;28;20040;-32
2022/06/10 12:57:55;;;;;;;1.52;1.42;;;21.00;62.80;;;;;;5064355;28;20028;-32
2022/06/10 13:00:21;;;;;;;3.05;1.60;;;21.00;56.20;;;;;;5065235;28;20064;-31
2022/06/10 13:02:52;;;;;;;2.58;1.85;;;21.00;55.00;;;;;;5064726;28;20138;-32
2022/06/10 13:05:27;;;;;;;2.83;1.70;;;21.20;58.20;;;;;;5066953;28;20449;-32
2022/06/10 13:07:55;;;;;;;2.60;1.90;;;21.40;56.60;;;;;;5059352;28;20024;-32
2022/06/10 13:10:30;;;;;;;2.22;2.00;;;21.40;58.30;;;;;;5067775;28;20048;-32
2022/06/10 13:13:10;;;;;;;5.72;1.95;;;21.50;58.30;;;;;;5063015;28;20593;-33
2022/06/10 13:15:36;;;;;;;1.77;1.67;;;21.60;59.60;;;;;;5067143;28;20029;-31
2022/06/10 13:18:17;;;;;;;3.45;1.90;;;21.70;55.30;;;;;;5072046;28;20033;-31
2022/06/10 13:20:44;;;;;;;3.40;1.50;;;21.50;54.30;;;;;;5071153;28;20041;-32
2022/06/10 13:23:22;;;;;;;1.55;1.40;;;21.60;56.10;;;;;;5067733;28;20032;-31
2022/06/10 13:25:52;;;;;;;2.53;1.50;;;21.60;57.90;;;;;;5062193;28;20396;-32
2022/06/10 13:28:24;;;;;;;1.48;1.38;;;21.50;51.40;;;;;;5070388;28;20588;-31
2022/06/10 13:31:01;;;;;;;1.67;1.58;;;21.50;54.10;;;;;;5066601;28;20037;-32
2022/06/10 13:33:27;;;;;;;1.70;1.52;;;21.60;57.90;;;;;;5062035;28;20489;-32
2022/06/10 13:35:55;;;;;;;2.22;1.50;;;21.70;57.10;;;;;;5070311;28;20028;-32
2022/06/10 13:38:31;;;;;;;1.70;1.60;;;21.90;53.10;;;;;;5072505;28;20489;-32